createdAt,value
2022-12-31T00:01:21.541Z,4.10
2022-12-31T00:03:51.024Z,4.08
2022-12-31T00:06:24.345Z,4.13
2022-12-31T00:08:54.912Z,4.10
2022-12-31T00:11:26.128Z,4.07
2022-12-31T00:13:55.255Z,4.05
2022-12-31T00:16:25.579Z,4.13
2022-12-31T00:18:58.991Z,4.11
2022-12-31T00:21:28.719Z,4.20
2022-12-31T00:24:00.160Z,4.21
2022-12-31T00:26:32.566Z,4.20
2022-12-31T00:29:02.784Z,4.23
2022-12-31T00:31:33.104Z,4.25
2022-12-31T00:34:01.987Z,4.27
2022-12-31T00:36:32.620Z,4.30
2022-12-31T00:39:03.669Z,4.30
2022-12-31T00:41:34.354Z,4.29
2022-12-31T00:44:03.186Z,4.35
2022-12-31T00:46:33.467Z,4.34
2022-12-31T00:49:02.068Z,4.36
2022-12-31T00:51:32.267Z,4.37
2022-12-31T00:54:03.937Z,4.41
2022-12-31T00:56:33.943Z,4.45
2022-12-31T00:59:02.340Z,4.33
2022-12-31T01:01:32.489Z,4.51
2022-12-31T01:04:02.933Z,4.54
2022-12-31T01:06:31.153Z,4.54
2022-12-31T01:09:01.223Z,4.56
2022-12-31T01:11:30.571Z,4.59
2022-12-31T01:14:04.445Z,4.58
2022-12-31T01:16:36.249Z,4.60
2022-12-31T01:19:09.185Z,4.51
2022-12-31T01:21:39.755Z,4.63
2022-12-31T01:24:09.281Z,4.42
2022-12-31T01:26:38.333Z,4.65
2022-12-31T01:29:09.351Z,4.65
2022-12-31T01:31:38.967Z,4.67
2022-12-31T01:34:09.451Z,4.67
2022-12-31T01:36:39.614Z,4.42
2022-12-31T01:39:09.984Z,4.73
2022-12-31T01:41:40.947Z,4.78
2022-12-31T01:44:50.858Z,4.80
2022-12-31T01:47:23.535Z,4.86
2022-12-31T01:50:00.732Z,4.86
2022-12-31T01:52:32.034Z,4.88
2022-12-31T01:55:06.708Z,4.92
2022-12-31T01:57:37.005Z,4.90
2022-12-31T02:00:10.184Z,4.93
2022-12-31T02:02:38.910Z,4.96
2022-12-31T02:05:19.628Z,5.01
2022-12-31T02:07:49.156Z,4.96
2022-12-31T02:10:18.668Z,4.92
2022-12-31T02:12:47.724Z,4.96
2022-12-31T02:15:17.879Z,4.95
2022-12-31T02:17:54.977Z,5.03
2022-12-31T02:21:11.584Z,4.99
2022-12-31T02:24:16.388Z,4.94
2022-12-31T02:26:55.156Z,4.84
2022-12-31T02:30:03.429Z,4.97
2022-12-31T02:32:58.780Z,4.99
2022-12-31T02:35:31.888Z,4.99
2022-12-31T02:38:04.338Z,4.64
2022-12-31T02:40:36.787Z,4.98
2022-12-31T02:43:06.216Z,4.99
2022-12-31T02:45:39.677Z,5.03
2022-12-31T02:48:22.877Z,4.91
2022-12-31T02:51:01.536Z,4.96
2022-12-31T02:53:55.546Z,5.10
2022-12-31T02:56:31.548Z,5.06
2022-12-31T02:59:23.868Z,4.85
2022-12-31T03:02:19.522Z,4.99
2022-12-31T03:04:54.943Z,5.17
2022-12-31T03:07:26.466Z,5.18
2022-12-31T03:09:56.285Z,5.14
2022-12-31T03:12:48.425Z,5.15
2022-12-31T03:15:22.922Z,5.04
2022-12-31T03:17:58.657Z,5.13
2022-12-31T03:20:49.856Z,5.17
2022-12-31T03:23:21.370Z,5.23
2022-12-31T03:25:51.247Z,5.26
2022-12-31T03:28:21.592Z,5.35
2022-12-31T03:34:33.319Z,5.27
2022-12-31T03:37:01.749Z,5.36
2022-12-31T03:39:30.859Z,5.36
2022-12-31T03:41:59.167Z,5.29
2022-12-31T03:44:27.244Z,5.37
2022-12-31T03:46:57.632Z,5.37
2022-12-31T03:49:26.644Z,5.34
2022-12-31T03:51:56.489Z,5.50
2022-12-31T03:54:26.299Z,5.45
2022-12-31T03:57:00.223Z,5.50
2022-12-31T03:59:29.605Z,5.50
2022-12-31T04:01:58.110Z,5.51
2022-12-31T04:04:26.983Z,5.58
2022-12-31T04:06:56.860Z,5.58
2022-12-31T04:09:25.023Z,5.57
2022-12-31T04:11:53.562Z,5.50
2022-12-31T04:14:21.933Z,5.62
2022-12-31T04:16:50.723Z,5.67
2022-12-31T04:19:18.985Z,5.69
2022-12-31T04:21:47.942Z,5.66
2022-12-31T04:24:17.613Z,5.71
2022-12-31T04:26:48.148Z,5.73
2022-12-31T04:29:16.265Z,5.79
2022-12-31T04:31:44.971Z,5.77
2022-12-31T04:34:13.133Z,5.77
2022-12-31T04:36:41.500Z,5.77
2022-12-31T04:39:11.796Z,5.70
2022-12-31T04:41:41.615Z,5.79
2022-12-31T04:44:10.395Z,5.80
2022-12-31T04:46:38.799Z,5.73
2022-12-31T04:49:07.478Z,5.73
2022-12-31T04:51:36.431Z,5.79
2022-12-31T04:54:05.690Z,5.83
2022-12-31T04:56:36.627Z,5.90
2022-12-31T04:59:07.563Z,5.92
2022-12-31T05:01:38.692Z,5.92
2022-12-31T05:04:07.212Z,5.90
2022-12-31T05:06:36.101Z,5.97
2022-12-31T05:09:04.523Z,6.03
2022-12-31T05:11:32.915Z,6.04
2022-12-31T05:14:01.097Z,6.06
2022-12-31T05:16:33.298Z,6.10
2022-12-31T05:19:01.795Z,6.09
2022-12-31T05:21:30.161Z,6.12
2022-12-31T05:23:58.830Z,6.12
2022-12-31T05:26:27.215Z,6.11
2022-12-31T05:28:57.701Z,6.12
2022-12-31T05:31:26.138Z,6.13
2022-12-31T05:33:55.702Z,6.14
2022-12-31T05:36:24.105Z,6.20
2022-12-31T05:38:54.319Z,6.15
2022-12-31T05:41:23.049Z,6.20
2022-12-31T05:43:51.650Z,6.25
2022-12-31T05:46:20.566Z,6.21
2022-12-31T05:48:50.378Z,6.18
2022-12-31T05:51:20.581Z,6.23
2022-12-31T05:53:49.882Z,6.23
2022-12-31T05:56:22.875Z,6.23
2022-12-31T05:58:55.082Z,6.28
2022-12-31T06:01:24.885Z,6.24
2022-12-31T06:03:53.092Z,6.32
2022-12-31T06:06:22.923Z,6.34
2022-12-31T06:08:51.626Z,6.32
2022-12-31T06:11:19.996Z,6.33
2022-12-31T06:13:49.264Z,6.39
2022-12-31T06:16:17.685Z,6.05
2022-12-31T06:18:50.427Z,6.37
2022-12-31T06:21:18.949Z,6.40
2022-12-31T06:23:48.672Z,6.38
2022-12-31T06:26:17.512Z,6.44
2022-12-31T06:28:45.622Z,6.46
2022-12-31T06:31:16.025Z,6.43
2022-12-31T06:33:46.916Z,6.49
2022-12-31T06:36:17.112Z,6.47
2022-12-31T06:38:45.733Z,6.44
2022-12-31T06:41:17.657Z,6.45
2022-12-31T06:43:46.572Z,6.45
2022-12-31T06:46:17.733Z,6.46
2022-12-31T06:48:46.181Z,6.42
2022-12-31T06:51:17.849Z,6.41
2022-12-31T06:53:46.956Z,6.35
2022-12-31T06:56:20.786Z,6.36
2022-12-31T06:58:50.899Z,6.34
2022-12-31T07:01:52.221Z,6.36
2022-12-31T07:04:44.955Z,6.35
2022-12-31T07:07:21.100Z,6.42
2022-12-31T07:10:02.124Z,6.50
2022-12-31T07:12:42.966Z,6.49
2022-12-31T07:15:16.337Z,6.56
2022-12-31T07:17:55.553Z,6.59
2022-12-31T07:20:24.637Z,6.60
2022-12-31T07:22:53.529Z,6.64
2022-12-31T07:25:23.523Z,6.67
2022-12-31T07:28:07.385Z,6.67
2022-12-31T07:30:43.929Z,6.65
2022-12-31T07:33:37.546Z,6.74
2022-12-31T07:36:16.540Z,6.83
2022-12-31T07:38:57.470Z,6.88
2022-12-31T07:41:43.391Z,6.66
2022-12-31T07:44:26.676Z,7.00
2022-12-31T07:46:57.782Z,7.05
2022-12-31T07:49:28.393Z,7.12
2022-12-31T07:51:58.032Z,7.20
2022-12-31T07:54:26.470Z,7.24
2022-12-31T07:56:57.081Z,7.29
2022-12-31T07:59:42.483Z,7.32
2022-12-31T08:02:24.133Z,7.41
2022-12-31T08:05:01.051Z,7.39
2022-12-31T08:07:38.808Z,7.48
2022-12-31T08:10:17.502Z,7.45
2022-12-31T08:12:49.799Z,7.51
2022-12-31T08:15:25.389Z,7.50
2022-12-31T08:17:57.205Z,7.56
2022-12-31T08:20:27.728Z,7.58
2022-12-31T08:23:17.089Z,7.59
2022-12-31T08:26:00.321Z,7.42
2022-12-31T08:28:48.782Z,7.54
2022-12-31T08:31:21.783Z,7.58
2022-12-31T08:34:05.585Z,7.64
2022-12-31T08:36:46.718Z,7.65
2022-12-31T08:39:27.346Z,7.67
2022-12-31T08:42:01.630Z,7.72
2022-12-31T08:44:38.021Z,7.74
2022-12-31T08:47:18.525Z,7.73
2022-12-31T08:49:47.715Z,7.75
2022-12-31T08:52:21.344Z,7.57
2022-12-31T08:54:50.536Z,7.67
2022-12-31T08:57:30.012Z,7.84
2022-12-31T09:00:08.615Z,7.82
2022-12-31T09:03:06.634Z,7.89
2022-12-31T09:05:55.654Z,7.88
2022-12-31T09:08:31.925Z,7.92
2022-12-31T09:11:05.674Z,7.88
2022-12-31T09:13:43.801Z,7.90
2022-12-31T09:16:19.275Z,7.95
2022-12-31T09:18:47.984Z,7.94
2022-12-31T09:21:18.278Z,7.98
2022-12-31T09:23:50.026Z,8.00
2022-12-31T09:26:37.704Z,7.99
2022-12-31T09:29:15.988Z,7.98
2022-12-31T09:31:53.697Z,7.90
2022-12-31T09:34:32.547Z,7.95
2022-12-31T09:37:06.631Z,7.97
2022-12-31T09:39:41.198Z,7.83
2022-12-31T09:42:55.776Z,8.00
2022-12-31T09:45:37.744Z,7.98
2022-12-31T09:48:39.902Z,8.01
2022-12-31T09:51:25.448Z,8.07
2022-12-31T09:54:20.363Z,8.10
2022-12-31T09:56:59.179Z,8.14
2022-12-31T09:59:37.097Z,8.07
2022-12-31T10:02:23.489Z,8.20
2022-12-31T10:05:05.200Z,8.11
2022-12-31T10:07:52.936Z,8.19
2022-12-31T10:10:27.224Z,8.20
2022-12-31T10:13:40.638Z,8.21
2022-12-31T10:16:39.603Z,8.21
2022-12-31T10:19:28.623Z,8.21
2022-12-31T10:22:12.453Z,8.21
2022-12-31T10:25:04.067Z,8.11
2022-12-31T10:27:50.033Z,8.17
2022-12-31T10:30:21.183Z,8.14
2022-12-31T10:33:00.539Z,8.11
2022-12-31T10:35:37.245Z,8.13
2022-12-31T10:38:19.124Z,8.10
2022-12-31T10:41:18.631Z,8.10
2022-12-31T10:44:14.194Z,8.15
2022-12-31T10:47:12.710Z,8.13
2022-12-31T10:50:31.264Z,8.16
2022-12-31T10:53:23.105Z,8.12
2022-12-31T10:56:36.943Z,8.15
2022-12-31T10:59:37.500Z,8.23
2022-12-31T11:02:28.115Z,8.15
2022-12-31T11:05:30.925Z,8.29
2022-12-31T11:08:16.377Z,8.40
2022-12-31T11:11:10.143Z,8.43
2022-12-31T11:14:10.173Z,8.43
2022-12-31T11:17:02.735Z,8.43
2022-12-31T11:19:42.708Z,8.14
2022-12-31T11:22:24.142Z,8.44
2022-12-31T11:25:14.949Z,8.47
2022-12-31T11:27:59.186Z,8.50
2022-12-31T11:30:34.029Z,8.50
2022-12-31T11:33:18.108Z,8.54
2022-12-31T11:36:01.396Z,8.58
2022-12-31T11:38:34.701Z,8.61
2022-12-31T11:41:09.130Z,8.61
2022-12-31T11:43:46.970Z,8.63
2022-12-31T11:46:25.999Z,8.67
2022-12-31T11:49:13.191Z,8.73
2022-12-31T11:51:56.459Z,8.85
2022-12-31T11:54:56.348Z,9.04
2022-12-31T11:57:28.788Z,9.06
2022-12-31T12:00:00.854Z,9.09
2022-12-31T12:02:35.685Z,9.08
2022-12-31T12:05:11.323Z,9.15
2022-12-31T12:07:42.082Z,9.15
2022-12-31T12:10:22.300Z,9.21
2022-12-31T12:12:51.273Z,9.13
2022-12-31T12:15:25.323Z,9.16
2022-12-31T12:17:56.909Z,9.15
2022-12-31T12:20:32.701Z,9.08
2022-12-31T12:23:04.048Z,9.01
2022-12-31T12:25:40.215Z,9.01
2022-12-31T12:28:22.871Z,9.02
2022-12-31T12:30:57.558Z,9.02
2022-12-31T12:33:26.527Z,9.01
2022-12-31T12:36:09.582Z,8.99
2022-12-31T12:38:38.707Z,8.96
2022-12-31T12:41:08.110Z,8.97
2022-12-31T12:43:41.727Z,8.94
2022-12-31T12:46:22.438Z,9.01
2022-12-31T12:48:57.400Z,9.01
2022-12-31T12:51:40.704Z,9.03
2022-12-31T12:54:22.198Z,9.01
2022-12-31T12:57:00.124Z,8.87
2022-12-31T12:59:54.126Z,9.03
2022-12-31T13:02:53.643Z,9.08
2022-12-31T13:05:33.456Z,9.12
2022-12-31T13:08:16.520Z,9.21
2022-12-31T13:10:59.016Z,9.29
2022-12-31T13:13:41.738Z,9.35
2022-12-31T13:16:22.594Z,9.41
2022-12-31T13:19:01.167Z,9.28
2022-12-31T13:21:41.676Z,9.53
2022-12-31T13:24:26.079Z,9.56
2022-12-31T13:27:01.402Z,9.58
2022-12-31T13:29:35.128Z,9.65
2022-12-31T13:32:07.232Z,9.70
2022-12-31T13:34:42.450Z,9.65
2022-12-31T13:37:25.791Z,9.65
2022-12-31T13:40:04.632Z,9.80
2022-12-31T13:42:41.622Z,9.78
2022-12-31T13:45:16.053Z,9.72
2022-12-31T13:47:50.625Z,9.82
2022-12-31T13:50:25.320Z,9.86
2022-12-31T13:52:59.165Z,9.72
2022-12-31T13:55:34.845Z,9.88
2022-12-31T13:58:11.527Z,9.84
2022-12-31T14:00:46.490Z,9.91
2022-12-31T14:03:20.741Z,9.88
2022-12-31T14:05:55.575Z,9.75
2022-12-31T14:08:23.877Z,9.95
2022-12-31T14:11:02.488Z,10.00
2022-12-31T14:13:54.179Z,10.06
2022-12-31T14:16:29.581Z,10.11
2022-12-31T14:19:06.768Z,10.17
2022-12-31T14:21:41.292Z,10.21
2022-12-31T14:24:17.007Z,10.21
2022-12-31T14:26:51.372Z,10.31
2022-12-31T14:29:30.870Z,10.31
2022-12-31T14:32:32.968Z,10.37
2022-12-31T14:35:17.673Z,10.42
2022-12-31T14:37:55.104Z,10.47
2022-12-31T14:40:29.092Z,10.52
2022-12-31T14:43:12.765Z,10.53
2022-12-31T14:45:55.885Z,10.30
2022-12-31T14:48:37.638Z,10.69
2022-12-31T14:51:09.261Z,10.62
2022-12-31T14:53:37.887Z,10.54
2022-12-31T14:56:08.583Z,10.75
2022-12-31T14:58:40.387Z,10.65
2022-12-31T15:01:23.465Z,10.77
2022-12-31T15:03:55.661Z,10.70
2022-12-31T15:06:43.719Z,10.78
2022-12-31T15:09:31.259Z,10.81
2022-12-31T15:12:19.983Z,10.88
2022-12-31T15:15:16.893Z,10.82
2022-12-31T15:17:56.923Z,10.82
2022-12-31T15:21:06.174Z,10.91
2022-12-31T15:23:37.664Z,10.97
2022-12-31T15:26:08.531Z,11.02
2022-12-31T15:28:40.057Z,11.03
2022-12-31T15:31:19.631Z,11.06
2022-12-31T15:33:59.865Z,11.10
2022-12-31T15:36:30.299Z,11.12
2022-12-31T15:39:27.399Z,11.06
2022-12-31T15:44:52.880Z,11.18
2022-12-31T15:47:30.600Z,11.20
2022-12-31T15:50:04.873Z,11.05
2022-12-31T15:52:41.830Z,11.22
2022-12-31T15:55:24.563Z,11.21
2022-12-31T15:57:54.533Z,11.20
2022-12-31T16:00:25.362Z,11.27
2022-12-31T16:02:56.884Z,11.39
2022-12-31T16:05:29.450Z,11.39
2022-12-31T16:07:59.513Z,11.40
2022-12-31T16:10:31.552Z,11.45
2022-12-31T16:13:02.513Z,11.49
2022-12-31T16:15:34.395Z,11.56
2022-12-31T16:18:17.149Z,11.49
2022-12-31T16:20:48.982Z,11.46
2022-12-31T16:23:26.631Z,11.42
2022-12-31T16:25:59.469Z,11.57
2022-12-31T16:28:31.489Z,11.55
2022-12-31T16:31:04.156Z,11.55
2022-12-31T16:33:37.906Z,11.57
2022-12-31T16:36:06.448Z,11.58
2022-12-31T16:38:36.714Z,11.65
2022-12-31T16:41:16.313Z,11.73
2022-12-31T16:43:47.034Z,11.82
2022-12-31T16:46:22.974Z,11.84
2022-12-31T16:48:56.634Z,11.85
2022-12-31T16:51:28.897Z,11.85
2022-12-31T16:54:01.060Z,11.88
2022-12-31T16:56:36.793Z,11.93
2022-12-31T16:59:08.859Z,11.96
2022-12-31T17:01:38.690Z,11.93
2022-12-31T17:04:13.086Z,11.85
2022-12-31T17:06:41.321Z,11.94
2022-12-31T17:09:16.507Z,12.03
2022-12-31T17:11:50.412Z,11.97
2022-12-31T17:14:21.084Z,12.03
2022-12-31T17:17:03.138Z,11.98
2022-12-31T17:19:42.640Z,11.93
2022-12-31T17:22:17.420Z,11.97
2022-12-31T17:24:49.986Z,12.01
2022-12-31T17:27:18.742Z,12.08
2022-12-31T17:29:48.404Z,12.15
2022-12-31T17:32:37.526Z,12.19
2022-12-31T17:35:29.006Z,12.20
2022-12-31T17:38:32.049Z,12.16
2022-12-31T17:41:17.073Z,12.11
2022-12-31T17:43:45.539Z,12.09
2022-12-31T17:46:16.992Z,12.09
2022-12-31T17:48:51.051Z,12.01
2022-12-31T17:51:24.472Z,11.92
2022-12-31T17:53:53.235Z,12.01
2022-12-31T17:56:24.263Z,12.10
2022-12-31T17:58:53.701Z,11.96
2022-12-31T18:01:24.895Z,12.28
2022-12-31T18:03:53.599Z,12.37
2022-12-31T18:06:27.005Z,12.14
2022-12-31T18:08:57.238Z,12.43
2022-12-31T18:11:26.161Z,12.47
2022-12-31T18:13:55.020Z,12.32
2022-12-31T18:16:24.914Z,12.27
2022-12-31T18:18:53.149Z,12.04
2022-12-31T18:21:33.779Z,11.94
2022-12-31T18:26:33.635Z,12.01
2022-12-31T18:29:15.069Z,12.02
2022-12-31T18:31:46.598Z,12.00
2022-12-31T18:34:16.490Z,11.74
2022-12-31T18:36:49.296Z,11.81
2022-12-31T18:39:17.695Z,11.84
2022-12-31T18:41:51.027Z,11.88
2022-12-31T18:44:19.288Z,11.88
2022-12-31T18:46:50.360Z,11.96
2022-12-31T18:49:19.157Z,11.85
2022-12-31T18:51:53.403Z,11.88
2022-12-31T18:54:22.240Z,11.60
2022-12-31T18:56:56.815Z,11.86
2022-12-31T18:59:25.416Z,11.86
2022-12-31T19:01:54.006Z,11.83
2022-12-31T19:04:27.513Z,11.53
2022-12-31T19:06:58.255Z,11.75
2022-12-31T19:12:17.941Z,11.68
2022-12-31T19:14:46.653Z,11.98
2022-12-31T19:17:15.026Z,12.07
2022-12-31T19:19:46.226Z,12.04
2022-12-31T19:22:16.814Z,12.04
2022-12-31T19:24:44.971Z,11.99
2022-12-31T19:27:14.116Z,11.98
2022-12-31T19:29:42.212Z,11.92
2022-12-31T19:32:10.652Z,11.83
2022-12-31T19:34:38.753Z,11.89
2022-12-31T19:37:07.429Z,11.82
2022-12-31T19:39:43.894Z,11.87
2022-12-31T19:42:17.515Z,11.81
2022-12-31T19:44:45.617Z,11.95
2022-12-31T19:47:14.597Z,11.94
2022-12-31T19:49:43.240Z,11.91
2022-12-31T19:52:12.275Z,11.92
2022-12-31T19:54:43.941Z,12.00
2022-12-31T19:57:12.303Z,12.00
2022-12-31T19:59:40.933Z,11.96
2022-12-31T20:02:13.692Z,11.95
2022-12-31T20:04:41.879Z,11.93
2022-12-31T20:07:11.417Z,11.91
2022-12-31T20:09:39.545Z,11.89
2022-12-31T20:12:09.662Z,11.85
2022-12-31T20:14:37.983Z,11.84
2022-12-31T20:17:06.971Z,11.81
2022-12-31T20:19:35.239Z,11.85
2022-12-31T20:22:03.607Z,11.84
2022-12-31T20:24:32.131Z,11.84
2022-12-31T20:27:00.482Z,11.73
2022-12-31T20:29:31.485Z,11.78
2022-12-31T20:32:00.153Z,11.88
2022-12-31T20:34:28.520Z,11.84
2022-12-31T20:36:58.093Z,11.81
2022-12-31T20:39:26.217Z,11.82
2022-12-31T20:41:57.647Z,11.74
2022-12-31T20:44:25.743Z,11.71
2022-12-31T20:46:55.767Z,11.73
2022-12-31T20:49:44.883Z,11.65
2022-12-31T20:52:14.348Z,11.69
2022-12-31T20:54:42.461Z,11.70
2022-12-31T20:57:11.259Z,11.64
2022-12-31T20:59:39.407Z,11.61
2022-12-31T21:02:21.408Z,11.58
2022-12-31T21:04:50.058Z,11.57
2022-12-31T21:07:20.446Z,11.51
2022-12-31T21:09:48.547Z,11.46
2022-12-31T21:12:35.037Z,11.42
2022-12-31T21:15:03.504Z,11.42
2022-12-31T21:17:33.589Z,11.44
2022-12-31T21:20:01.717Z,11.45
2022-12-31T21:22:30.163Z,11.45
2022-12-31T21:25:01.291Z,11.42
2022-12-31T21:27:30.621Z,11.35
2022-12-31T21:32:48.558Z,11.39
2022-12-31T21:38:09.834Z,11.34
2022-12-31T21:40:38.657Z,11.35
2022-12-31T21:43:07.034Z,11.35
2022-12-31T21:45:35.344Z,11.38
2022-12-31T21:48:25.765Z,11.47
2022-12-31T21:50:56.410Z,11.42
2022-12-31T21:53:34.130Z,11.70
2022-12-31T21:56:14.551Z,11.75
2022-12-31T21:58:45.215Z,11.81
2022-12-31T22:01:35.844Z,11.84
2022-12-31T22:04:28.246Z,11.86
2022-12-31T22:06:56.342Z,11.88
2022-12-31T22:09:25.936Z,11.92
2022-12-31T22:11:54.031Z,11.96
2022-12-31T22:14:24.271Z,11.97
2022-12-31T22:16:52.407Z,11.93
2022-12-31T22:19:22.146Z,11.96
2022-12-31T22:21:51.457Z,12.00
2022-12-31T22:24:19.811Z,11.98
2022-12-31T22:26:50.159Z,11.92
2022-12-31T22:29:19.759Z,11.93
2022-12-31T22:31:48.467Z,11.99
2022-12-31T22:34:16.937Z,12.04
2022-12-31T22:36:46.410Z,12.07
2022-12-31T22:39:43.860Z,12.06
2022-12-31T22:42:05.397Z,12.02
2022-12-31T22:44:33.804Z,12.00
2022-12-31T22:47:01.976Z,11.99
2022-12-31T22:49:32.692Z,12.03
2022-12-31T22:52:08.540Z,12.03
2022-12-31T22:54:38.600Z,11.63
2022-12-31T22:57:06.479Z,12.00
2022-12-31T22:59:34.843Z,11.94
2022-12-31T23:02:03.217Z,11.94
2022-12-31T23:04:31.717Z,11.96
2022-12-31T23:07:00.843Z,11.96
2022-12-31T23:09:48.386Z,11.98
2022-12-31T23:12:18.864Z,11.95
2022-12-31T23:15:05.927Z,11.94
2022-12-31T23:17:51.987Z,11.90
2022-12-31T23:20:40.142Z,11.85
2022-12-31T23:23:11.971Z,11.85
2022-12-31T23:25:43.693Z,11.88
2022-12-31T23:28:13.963Z,11.92
2022-12-31T23:30:44.275Z,11.94
2022-12-31T23:33:16.984Z,11.84
2022-12-31T23:35:45.648Z,11.85
2022-12-31T23:38:20.581Z,11.80
2022-12-31T23:40:50.681Z,11.78
2022-12-31T23:43:22.287Z,11.70
2022-12-31T23:45:51.581Z,11.64
2022-12-31T23:48:19.811Z,11.58
2022-12-31T23:50:53.419Z,11.53
2022-12-31T23:53:24.688Z,11.62
2022-12-31T23:55:55.224Z,11.49
2022-12-31T23:58:23.430Z,11.74
